Time;durP1;ratioP1;P1;durP2;ratioP2;P2;SDS_P1;SDS_P2;PMS_P1;PMS_P2;Temp;Humidity;BMP_temperature;BMP_pressure;BME280_temperature;BME280_humidity;BME280_pressure;Samples;Min_cycle;Max_cycle;Signal;HPM_P1;HPM_P2
2021/01/04 00:01:58;;;;;;;27.73;15.73;;;1.50;99.90;;;;;;5032293;28;20238;-77
2021/01/04 00:05:04;;;;;;;27.53;16.53;;;1.60;99.90;;;;;;5031910;28;20242;-77
2021/01/04 00:08:13;;;;;;;28.57;16.37;;;1.60;99.90;;;;;;5045827;28;20250;-76
2021/01/04 00:10:55;;;;;;;27.43;16.20;;;1.60;99.90;;;;;;5030422;28;20231;-77
2021/01/04 00:13:30;;;;;;;28.73;16.93;;;1.60;99.90;;;;;;5037066;28;20236;-77
2021/01/04 00:16:04;;;;;;;28.07;16.63;;;1.60;99.90;;;;;;5032372;28;20199;-77
2021/01/04 00:18:41;;;;;;;29.27;16.63;;;1.50;99.90;;;;;;5032120;28;20231;-77
2021/01/04 00:21:13;;;;;;;30.13;17.17;;;1.50;99.90;;;;;;5032094;28;20242;-77
2021/01/04 00:23:48;;;;;;;29.03;16.77;;;1.50;99.90;;;;;;5044302;28;20270;-77
2021/01/04 00:26:21;;;;;;;30.80;17.93;;;1.60;99.90;;;;;;5052230;28;20265;-77
2021/01/04 00:28:48;;;;;;;30.50;18.40;;;1.60;99.90;;;;;;5051701;28;20325;-77
2021/01/04 00:31:19;;;;;;;30.53;17.33;;;1.50;99.90;;;;;;5051925;28;20200;-77
2021/01/04 00:33:49;;;;;;;35.00;20.93;;;1.50;99.90;;;;;;5051403;28;20678;-77
2021/01/04 00:36:21;;;;;;;33.03;19.73;;;1.40;99.90;;;;;;5051659;28;20671;-77
2021/01/04 00:39:20;;;;;;;34.00;19.50;;;1.40;99.90;;;;;;5053014;28;20246;-77
2021/01/04 00:41:58;;;;;;;31.50;17.43;;;1.20;99.90;;;;;;5071189;28;20250;-77
2021/01/04 00:44:32;;;;;;;28.27;17.23;;;1.20;99.90;;;;;;5072038;28;20680;-77
2021/01/04 00:47:07;;;;;;;28.90;17.00;;;1.30;99.90;;;;;;5075547;28;20599;-77
2021/01/04 00:49:34;;;;;;;31.70;17.30;;;1.30;99.90;;;;;;5074980;28;20234;-77
2021/01/04 00:52:08;;;;;;;31.93;18.33;;;1.30;99.90;;;;;;5075301;28;20245;-77
2021/01/04 00:54:55;;;;;;;32.20;17.40;;;1.30;99.90;;;;;;5065646;28;20236;-77
2021/01/04 00:57:56;;;;;;;30.47;17.43;;;1.40;99.90;;;;;;5055473;28;20246;-77
2021/01/04 01:00:26;;;;;;;30.83;17.73;;;1.40;99.90;;;;;;5074464;28;20630;-77
2021/01/04 01:03:21;;;;;;;29.00;16.90;;;1.50;99.90;;;;;;5061413;28;20668;-77
2021/01/04 01:05:58;;;;;;;29.70;16.87;;;1.50;99.90;;;;;;5073150;28;20261;-77
2021/01/04 01:08:26;;;;;;;30.73;17.97;;;1.60;99.90;;;;;;5075160;28;20280;-77
2021/01/04 01:10:57;;;;;;;28.40;17.00;;;1.50;99.90;;;;;;5075034;28;20191;-78
2021/01/04 01:13:42;;;;;;;29.83;17.33;;;1.50;99.90;;;;;;5059585;28;20246;-77
2021/01/04 01:16:45;;;;;;;28.80;16.97;;;1.40;99.90;;;;;;5055196;28;20199;-77
2021/01/04 01:19:20;;;;;;;28.60;16.63;;;1.40;99.90;;;;;;4993418;28;20745;-77
2021/01/04 01:21:47;;;;;;;29.97;17.90;;;1.40;99.90;;;;;;4982006;28;20248;-77
2021/01/04 01:24:15;;;;;;;29.40;17.50;;;1.50;99.90;;;;;;5007681;28;20256;-77
2021/01/04 01:27:25;;;;;;;33.30;18.17;;;1.40;99.90;;;;;;4996963;28;20309;-77
2021/01/04 01:30:09;;;;;;;31.63;17.10;;;1.50;99.90;;;;;;4935338;29;20250;-77
2021/01/04 01:32:50;;;;;;;29.40;16.70;;;1.50;99.90;;;;;;4935156;29;20286;-77
2021/01/04 01:35:40;;;;;;;31.23;18.07;;;1.50;99.90;;;;;;4936385;29;20291;-77
2021/01/04 01:38:26;;;;;;;31.77;18.37;;;1.60;99.90;;;;;;4916367;29;20292;-77
2021/01/04 01:41:07;;;;;;;31.20;17.77;;;1.60;99.90;;;;;;4945340;29;20315;-77
2021/01/04 01:43:57;;;;;;;29.20;17.53;;;1.60;99.90;;;;;;4954243;29;20305;-77
2021/01/04 01:46:33;;;;;;;29.77;17.43;;;1.70;99.90;;;;;;4953563;28;20263;-77
2021/01/04 01:49:17;;;;;;;30.27;16.97;;;1.60;99.90;;;;;;4954113;29;20289;-77
2021/01/04 01:52:16;;;;;;;28.47;17.00;;;1.60;99.90;;;;;;4953983;29;20290;-78
2021/01/04 01:55:12;;;;;;;28.20;17.47;;;1.60;99.90;;;;;;4935647;29;20211;-77
2021/01/04 01:57:59;;;;;;;28.90;17.13;;;1.60;99.90;;;;;;4992804;28;20207;-77
2021/01/04 02:00:31;;;;;;;29.23;17.17;;;1.60;99.90;;;;;;4992388;28;20289;-77
2021/01/04 02:03:06;;;;;;;30.10;18.50;;;1.60;99.90;;;;;;4992919;28;20669;-77
2021/01/04 02:05:55;;;;;;;30.03;17.10;;;1.60;99.90;;;;;;4992525;28;20335;-77
2021/01/04 02:08:26;;;;;;;29.50;17.60;;;1.60;99.90;;;;;;5054216;28;20231;-78
2021/01/04 02:10:56;;;;;;;31.37;18.67;;;1.60;99.90;;;;;;5054385;28;20246;-77
2021/01/04 02:13:26;;;;;;;30.70;17.67;;;1.60;99.90;;;;;;5038869;28;20251;-77
2021/01/04 02:15:56;;;;;;;29.10;17.70;;;1.60;99.90;;;;;;5033666;28;20679;-77
2021/01/04 02:18:49;;;;;;;29.80;17.70;;;1.60;99.90;;;;;;5033851;28;20247;-77
2021/01/04 02:22:02;;;;;;;30.60;16.90;;;1.60;99.90;;;;;;5034004;28;20240;-78
2021/01/04 02:24:30;;;;;;;29.83;16.93;;;1.60;99.90;;;;;;5071241;28;20269;-77
2021/01/04 02:27:02;;;;;;;28.57;16.63;;;1.60;99.90;;;;;;5059649;28;20307;-77
2021/01/04 02:29:29;;;;;;;32.30;18.13;;;1.60;99.90;;;;;;5053291;28;20235;-77
2021/01/04 02:31:59;;;;;;;27.73;16.93;;;1.60;99.90;;;;;;5053878;28;20254;-77
2021/01/04 02:34:30;;;;;;;29.03;17.63;;;1.50;99.90;;;;;;5053776;28;20200;-77
2021/01/04 02:36:59;;;;;;;28.73;17.73;;;1.50;99.90;;;;;;5066307;28;20191;-77
2021/01/04 02:39:39;;;;;;;28.23;17.13;;;1.60;99.90;;;;;;5073166;28;20282;-77
2021/01/04 02:42:09;;;;;;;29.23;17.43;;;1.60;99.90;;;;;;5033476;28;20754;-77
2021/01/04 02:44:37;;;;;;;29.57;17.80;;;1.60;99.90;;;;;;5043905;28;20230;-77
2021/01/04 02:47:42;;;;;;;28.57;17.80;;;1.60;99.90;;;;;;5053109;28;20262;-77
2021/01/04 02:50:21;;;;;;;30.23;17.40;;;1.60;99.90;;;;;;5005952;28;20287;-77
2021/01/04 02:53:16;;;;;;;28.60;16.83;;;1.60;99.90;;;;;;5009931;28;20684;-77
2021/01/04 02:56:03;;;;;;;29.33;16.77;;;1.60;99.90;;;;;;4992858;28;20244;-77
2021/01/04 02:58:43;;;;;;;31.00;18.10;;;1.60;99.90;;;;;;5011093;28;20237;-77
2021/01/04 03:01:14;;;;;;;30.63;18.27;;;1.70;99.90;;;;;;4994995;28;20248;-77
2021/01/04 03:03:42;;;;;;;32.87;18.73;;;1.70;99.90;;;;;;4991563;28;20289;-77
2021/01/04 03:06:11;;;;;;;33.60;17.97;;;1.70;99.90;;;;;;4991616;28;20313;-77
2021/01/04 03:08:38;;;;;;;30.13;18.37;;;1.70;99.90;;;;;;4990937;28;20336;-77
2021/01/04 03:11:08;;;;;;;32.30;18.37;;;1.80;99.90;;;;;;4995198;28;20759;-77
2021/01/04 03:13:46;;;;;;;29.13;17.80;;;1.80;99.90;;;;;;4994344;28;20765;-77
2021/01/04 03:16:21;;;;;;;31.57;18.37;;;1.80;99.90;;;;;;4990989;28;20241;-78
2021/01/04 03:18:51;;;;;;;33.10;18.67;;;1.80;99.90;;;;;;5004527;28;20288;-77
2021/01/04 03:21:22;;;;;;;31.17;18.13;;;1.80;99.90;;;;;;4998652;28;20244;-77
2021/01/04 03:23:50;;;;;;;34.93;19.03;;;1.80;99.90;;;;;;5006393;28;20283;-77
2021/01/04 03:26:20;;;;;;;35.17;19.70;;;1.80;99.90;;;;;;5029911;28;20269;-77
2021/01/04 03:28:47;;;;;;;33.60;19.77;;;1.80;99.90;;;;;;5072491;28;20289;-78
2021/01/04 03:31:14;;;;;;;34.50;19.10;;;1.90;99.90;;;;;;5072324;28;20234;-77
2021/01/04 03:33:40;;;;;;;33.90;19.03;;;2.00;99.90;;;;;;5072637;28;20231;-77
2021/01/04 03:36:07;;;;;;;37.60;20.13;;;2.00;99.90;;;;;;5070530;28;20280;-77
2021/01/04 03:38:34;;;;;;;34.83;19.10;;;2.10;99.90;;;;;;5052668;28;20234;-77
2021/01/04 03:41:02;;;;;;;39.23;20.57;;;2.10;99.90;;;;;;5068447;28;20227;-77
2021/01/04 03:43:29;;;;;;;40.30;20.90;;;2.20;99.90;;;;;;5072198;28;20238;-77
2021/01/04 03:45:56;;;;;;;39.83;20.73;;;2.20;99.90;;;;;;5072484;28;20307;-77
2021/01/04 03:48:23;;;;;;;38.47;20.83;;;2.30;99.90;;;;;;5072673;28;20234;-77
2021/01/04 03:50:50;;;;;;;36.33;20.13;;;2.30;99.90;;;;;;5072516;28;20249;-77
2021/01/04 03:53:16;;;;;;;36.03;20.40;;;2.30;99.90;;;;;;5072464;28;20253;-77
2021/01/04 03:55:43;;;;;;;41.80;20.80;;;2.20;99.90;;;;;;5071939;28;20205;-77
2021/01/04 03:58:11;;;;;;;39.10;20.80;;;2.20;99.90;;;;;;5072126;28;20207;-77
2021/01/04 04:00:38;;;;;;;39.10;21.17;;;2.10;99.90;;;;;;5072342;28;20229;-77
2021/01/04 04:03:06;;;;;;;40.90;22.30;;;2.00;99.90;;;;;;5066377;28;20239;-77
2021/01/04 04:05:32;;;;;;;44.13;22.03;;;1.90;99.90;;;;;;5069438;28;20308;-77
2021/01/04 04:08:00;;;;;;;44.03;21.70;;;1.80;99.90;;;;;;5069311;28;20682;-77
2021/01/04 04:10:26;;;;;;;40.83;21.63;;;1.60;99.90;;;;;;5070519;28;21689;-77
2021/01/04 04:12:53;;;;;;;42.07;22.67;;;1.50;99.90;;;;;;5072113;28;20253;-77
2021/01/04 04:15:20;;;;;;;41.87;22.10;;;1.50;99.90;;;;;;5072012;28;20249;-77
2021/01/04 04:17:48;;;;;;;45.70;22.30;;;1.40;99.90;;;;;;5072149;28;20199;-77
2021/01/04 04:20:17;;;;;;;47.47;24.10;;;1.40;99.90;;;;;;5075226;28;20616;-77
2021/01/04 04:22:47;;;;;;;47.47;23.70;;;1.40;99.90;;;;;;5075626;28;20261;-78
2021/01/04 04:25:15;;;;;;;44.70;22.37;;;1.40;99.90;;;;;;5075389;28;20241;-78
2021/01/04 04:27:42;;;;;;;45.17;21.87;;;1.40;99.90;;;;;;5058623;28;20238;-77
2021/01/04 04:30:10;;;;;;;47.33;23.27;;;1.40;99.90;;;;;;5075977;28;20270;-78
2021/01/04 04:32:36;;;;;;;43.27;21.57;;;1.40;99.90;;;;;;5076245;28;20238;-78
2021/01/04 04:35:04;;;;;;;47.73;23.00;;;1.30;99.90;;;;;;5075684;28;20243;-78
2021/01/04 04:37:30;;;;;;;48.63;22.73;;;1.30;99.90;;;;;;5076044;28;20276;-78
2021/01/04 04:39:57;;;;;;;46.20;22.13;;;1.30;99.90;;;;;;5075305;28;20245;-78
2021/01/04 04:42:23;;;;;;;50.77;23.77;;;1.30;99.90;;;;;;5075813;28;20226;-78
2021/01/04 04:44:57;;;;;;;48.67;23.20;;;1.30;99.90;;;;;;5075619;28;20250;-77
2021/01/04 04:47:51;;;;;;;47.23;23.10;;;1.30;99.90;;;;;;5075453;28;20258;-77
2021/01/04 04:50:34;;;;;;;48.43;23.13;;;1.30;99.90;;;;;;5067758;28;20233;-78
2021/01/04 04:53:27;;;;;;;46.63;22.87;;;1.30;99.90;;;;;;5075237;28;20227;-77
2021/01/04 04:56:10;;;;;;;52.93;23.90;;;1.30;99.90;;;;;;5075243;28;20233;-78
2021/01/04 04:58:46;;;;;;;51.27;24.17;;;1.30;99.90;;;;;;5075236;28;20210;-78
2021/01/04 05:01:27;;;;;;;53.10;24.97;;;1.30;99.90;;;;;;5075574;28;20238;-78
2021/01/04 05:04:36;;;;;;;47.73;23.27;;;1.30;99.90;;;;;;5070889;28;20210;-77
2021/01/04 05:07:14;;;;;;;48.47;23.33;;;1.30;99.90;;;;;;5055330;28;20259;-78
2021/01/04 05:09:56;;;;;;;52.10;23.80;;;1.30;99.90;;;;;;5054989;28;20686;-77
2021/01/04 05:12:33;;;;;;;50.27;24.83;;;1.30;99.90;;;;;;5055102;28;20738;-77
2021/01/04 05:15:07;;;;;;;50.33;24.37;;;1.40;99.90;;;;;;5055132;28;20292;-78
2021/01/04 05:18:14;;;;;;;51.57;23.83;;;1.40;99.90;;;;;;5054814;28;20191;-77
2021/01/04 05:21:15;;;;;;;51.40;23.73;;;1.40;99.90;;;;;;5054929;28;20239;-78
2021/01/04 05:24:02;;;;;;;52.73;23.90;;;1.30;99.90;;;;;;4996498;28;20265;-77
2021/01/04 05:26:42;;;;;;;52.27;24.23;;;1.30;99.90;;;;;;4993149;28;20293;-77
2021/01/04 05:29:35;;;;;;;52.03;24.43;;;1.40;99.90;;;;;;4993564;28;20693;-77
2021/01/04 05:32:23;;;;;;;49.30;24.37;;;1.40;99.90;;;;;;4992708;28;20252;-77
2021/01/04 05:34:52;;;;;;;55.47;24.50;;;1.40;99.90;;;;;;4993214;28;20245;-78
2021/01/04 05:37:30;;;;;;;60.07;25.17;;;1.40;99.90;;;;;;4992921;28;20234;-78
2021/01/04 05:40:19;;;;;;;54.70;24.30;;;1.40;99.90;;;;;;4997085;28;20252;-77
2021/01/04 05:43:08;;;;;;;55.97;25.13;;;1.40;99.90;;;;;;5010166;28;20236;-77
2021/01/04 05:45:40;;;;;;;53.00;25.20;;;1.40;99.90;;;;;;5012509;28;20264;-78
2021/01/04 05:48:16;;;;;;;56.97;24.07;;;1.40;99.90;;;;;;5012635;28;20245;-77
2021/01/04 05:50:54;;;;;;;58.23;25.90;;;1.40;99.90;;;;;;5012285;28;20240;-77
2021/01/04 05:53:20;;;;;;;55.73;25.60;;;1.40;99.90;;;;;;5012440;28;20339;-77
2021/01/04 05:55:54;;;;;;;54.87;25.00;;;1.40;99.90;;;;;;5001380;28;20246;-78
2021/01/04 05:58:24;;;;;;;54.30;26.07;;;1.40;99.90;;;;;;4983401;28;20640;-77
2021/01/04 06:00:50;;;;;;;54.90;25.60;;;1.40;99.90;;;;;;5002542;28;20242;-76
2021/01/04 06:03:19;;;;;;;56.13;26.73;;;1.40;99.90;;;;;;5034226;28;20242;-77
2021/01/04 06:05:47;;;;;;;59.50;26.70;;;1.40;99.90;;;;;;5055029;28;20270;-77
2021/01/04 06:08:22;;;;;;;56.73;26.40;;;1.40;99.90;;;;;;5074199;28;20235;-77
2021/01/04 06:10:49;;;;;;;56.17;26.57;;;1.40;99.90;;;;;;5074179;28;20234;-76
2021/01/04 06:13:20;;;;;;;57.03;27.10;;;1.40;99.90;;;;;;5073938;28;20235;-77
2021/01/04 06:15:47;;;;;;;58.87;27.03;;;1.40;99.90;;;;;;5067866;28;20236;-76
2021/01/04 06:18:24;;;;;;;64.23;27.63;;;1.50;99.90;;;;;;5073027;28;20209;-77
2021/01/04 06:21:24;;;;;;;56.93;25.67;;;1.40;99.90;;;;;;5070497;28;20265;-77
2021/01/04 06:23:53;;;;;;;58.17;27.23;;;1.50;99.90;;;;;;5070105;28;20329;-77
2021/01/04 06:26:23;;;;;;;60.03;28.97;;;1.50;99.90;;;;;;5057471;28;20250;-77
2021/01/04 06:28:54;;;;;;;92.70;46.43;;;1.50;99.90;;;;;;5065418;28;20249;-77
2021/01/04 06:31:43;;;;;;;101.87;48.97;;;1.50;99.90;;;;;;5073903;28;20199;-77
2021/01/04 06:34:20;;;;;;;75.17;35.63;;;1.50;99.90;;;;;;5041842;28;20278;-78
2021/01/04 06:36:50;;;;;;;64.13;32.30;;;1.40;99.90;;;;;;5047351;28;20206;-76
2021/01/04 06:39:28;;;;;;;84.97;43.23;;;1.50;99.90;;;;;;5059335;28;20233;-78
2021/01/04 06:42:06;;;;;;;68.87;33.80;;;1.50;99.90;;;;;;5044937;28;20238;-77
2021/01/04 06:44:33;;;;;;;76.00;38.47;;;1.50;99.90;;;;;;5072754;28;20238;-77
2021/01/04 06:47:27;;;;;;;74.83;38.33;;;1.50;99.90;;;;;;5073198;28;20782;-76
2021/01/04 06:50:02;;;;;;;64.63;30.33;;;1.50;99.90;;;;;;5072240;28;20286;-77
2021/01/04 06:53:02;;;;;;;65.73;29.87;;;1.50;99.90;;;;;;5071846;28;20233;-77
2021/01/04 06:55:56;;;;;;;68.43;30.70;;;1.50;99.90;;;;;;5047717;28;20714;-77
2021/01/04 06:58:53;;;;;;;64.27;27.77;;;1.60;99.90;;;;;;5072819;28;20239;-77
2021/01/04 07:01:51;;;;;;;74.13;31.87;;;1.60;99.90;;;;;;5007521;28;20555;-77
2021/01/04 07:04:32;;;;;;;84.40;40.10;;;1.60;99.90;;;;;;4993505;28;20296;-77
2021/01/04 07:07:10;;;;;;;65.30;30.03;;;1.60;99.90;;;;;;4999945;28;20772;-77
2021/01/04 07:10:03;;;;;;;69.30;33.97;;;1.70;99.90;;;;;;4981304;28;20209;-77
2021/01/04 07:12:49;;;;;;;67.93;30.40;;;1.70;99.90;;;;;;4998806;28;20245;-78
2021/01/04 07:15:19;;;;;;;67.97;30.73;;;1.70;99.90;;;;;;5007514;28;20324;-77
2021/01/04 07:18:11;;;;;;;68.53;33.97;;;1.70;99.90;;;;;;5002264;28;20388;-77
2021/01/04 07:21:11;;;;;;;70.10;34.43;;;1.70;99.90;;;;;;4996299;28;20288;-77
2021/01/04 07:23:51;;;;;;;77.30;35.67;;;1.80;99.90;;;;;;4989565;28;20272;-77
2021/01/04 07:26:31;;;;;;;73.07;34.27;;;1.80;99.90;;;;;;4991229;28;20244;-78
2021/01/04 07:29:20;;;;;;;84.33;37.67;;;1.80;99.90;;;;;;4991339;28;20700;-78
2021/01/04 07:31:54;;;;;;;62.13;30.83;;;1.80;99.90;;;;;;4976719;28;20252;-77
2021/01/04 07:34:25;;;;;;;66.90;30.10;;;1.90;99.90;;;;;;4991693;28;20231;-78
2021/01/04 07:36:58;;;;;;;65.60;29.13;;;1.90;99.90;;;;;;4996706;28;20225;-78
2021/01/04 07:39:43;;;;;;;65.97;28.67;;;1.90;99.90;;;;;;5049296;28;20231;-78
2021/01/04 07:42:38;;;;;;;62.10;29.03;;;1.90;99.90;;;;;;5043260;28;20234;-78
2021/01/04 07:45:27;;;;;;;69.93;30.90;;;1.90;99.90;;;;;;5045644;28;20258;-78
2021/01/04 07:48:27;;;;;;;65.20;30.90;;;1.90;99.90;;;;;;5051677;28;20235;-77
2021/01/04 07:51:19;;;;;;;68.77;32.10;;;1.90;99.90;;;;;;5032550;28;20682;-77
2021/01/04 07:54:46;;;;;;;75.10;33.90;;;1.90;99.90;;;;;;5050683;28;20250;-77
2021/01/04 07:57:44;;;;;;;70.30;32.27;;;1.90;99.90;;;;;;4952944;28;20199;-77
2021/01/04 08:00:50;;;;;;;69.70;31.40;;;1.90;99.90;;;;;;4985071;28;20290;-77
2021/01/04 08:04:08;;;;;;;68.40;30.90;;;2.00;99.90;;;;;;4980784;28;20201;-77
2021/01/04 08:07:11;;;;;;;62.00;29.47;;;2.00;99.90;;;;;;4984022;28;20276;-77
2021/01/04 08:09:59;;;;;;;67.40;30.37;;;1.90;99.90;;;;;;4960960;28;20245;-77
2021/01/04 08:13:08;;;;;;;68.47;31.10;;;1.90;99.90;;;;;;4986341;28;20665;-77
2021/01/04 08:15:39;;;;;;;69.37;31.70;;;2.00;99.90;;;;;;4930029;29;20203;-78
2021/01/04 08:18:07;;;;;;;63.47;30.33;;;1.90;99.90;;;;;;4914269;29;20295;-77
2021/01/04 08:20:36;;;;;;;80.03;33.37;;;2.00;99.90;;;;;;4914246;29;20649;-79
2021/01/04 08:23:31;;;;;;;62.00;30.20;;;2.00;99.90;;;;;;4935987;29;20231;-79
2021/01/04 08:26:10;;;;;;;70.40;33.53;;;2.00;99.90;;;;;;4948380;29;20312;-79
2021/01/04 08:28:42;;;;;;;71.17;32.57;;;2.00;99.90;;;;;;4947733;29;20242;-79
2021/01/04 08:31:17;;;;;;;65.87;31.13;;;2.00;99.90;;;;;;4962374;28;20327;-79
2021/01/04 08:33:50;;;;;;;67.13;31.70;;;2.00;99.90;;;;;;4990302;28;20656;-79
2021/01/04 08:36:22;;;;;;;69.33;31.90;;;2.10;99.90;;;;;;4966671;28;20710;-79
2021/01/04 08:38:50;;;;;;;67.87;32.37;;;2.10;99.90;;;;;;4979244;28;20698;-79
2021/01/04 08:41:28;;;;;;;65.93;31.83;;;2.20;99.90;;;;;;4987512;28;20304;-80
2021/01/04 08:43:55;;;;;;;64.40;31.37;;;2.30;99.90;;;;;;4989943;28;20280;-80
2021/01/04 08:46:31;;;;;;;63.90;30.40;;;2.30;99.90;;;;;;4989536;28;20463;-81
2021/01/04 08:49:01;;;;;;;68.87;35.47;;;2.40;99.90;;;;;;4988583;28;20285;-81
2021/01/04 08:51:33;;;;;;;65.93;36.03;;;2.50;99.90;;;;;;5013449;28;20201;-81
2021/01/04 08:54:04;;;;;;;62.33;31.27;;;2.60;99.90;;;;;;5044164;28;20291;-81
2021/01/04 08:56:35;;;;;;;60.13;29.47;;;2.60;99.90;;;;;;5051419;28;20221;-81
2021/01/04 08:59:11;;;;;;;60.30;28.63;;;2.60;99.90;;;;;;5050108;28;20253;-81
2021/01/04 09:01:51;;;;;;;60.03;30.17;;;2.70;99.90;;;;;;5051091;28;20588;-81
2021/01/04 09:04:32;;;;;;;53.93;28.40;;;2.70;99.90;;;;;;5038553;28;20303;-82
2021/01/04 09:07:08;;;;;;;60.47;29.80;;;2.80;99.90;;;;;;5053356;28;20257;-81
2021/01/04 09:09:41;;;;;;;52.80;27.00;;;2.70;99.90;;;;;;5040016;28;20669;-81
2021/01/04 09:12:19;;;;;;;56.50;28.23;;;2.80;99.90;;;;;;5054570;28;20199;-81
2021/01/04 09:14:51;;;;;;;52.50;28.50;;;2.90;99.90;;;;;;5053966;28;20718;-82
2021/01/04 09:17:30;;;;;;;58.00;30.23;;;2.90;99.90;;;;;;5053125;28;20236;-82
2021/01/04 09:20:08;;;;;;;56.40;29.50;;;3.10;99.90;;;;;;5051894;28;20232;-82
2021/01/04 09:22:35;;;;;;;55.63;29.60;;;3.10;99.90;;;;;;5057745;28;20308;-81
2021/01/04 09:25:02;;;;;;;52.47;28.97;;;3.10;99.90;;;;;;5074096;28;20677;-81
2021/01/04 09:27:32;;;;;;;52.07;28.37;;;3.10;99.90;;;;;;5063744;28;20277;-81
2021/01/04 09:30:04;;;;;;;50.63;27.30;;;3.00;99.90;;;;;;5069347;28;20229;-82
2021/01/04 09:32:35;;;;;;;49.90;27.63;;;3.00;99.90;;;;;;5074346;28;20230;-82
2021/01/04 09:35:03;;;;;;;56.13;31.07;;;2.80;99.90;;;;;;5075033;28;20205;-81
2021/01/04 09:37:30;;;;;;;53.30;29.63;;;2.80;99.90;;;;;;5074382;28;20194;-82
2021/01/04 09:40:03;;;;;;;57.70;32.40;;;2.80;99.90;;;;;;5061884;28;20250;-80
2021/01/04 09:42:30;;;;;;;49.53;27.13;;;2.70;99.90;;;;;;5056093;28;20203;-81
2021/01/04 09:45:09;;;;;;;52.50;28.27;;;2.70;99.90;;;;;;5074540;28;20305;-82
2021/01/04 09:47:42;;;;;;;51.90;26.43;;;2.80;99.90;;;;;;5074344;28;20229;-81
2021/01/04 09:50:17;;;;;;;50.40;28.10;;;2.90;99.90;;;;;;5070329;28;20228;-82
2021/01/04 09:52:49;;;;;;;52.93;27.63;;;3.00;99.90;;;;;;5074090;28;20198;-81
2021/01/04 09:55:21;;;;;;;53.00;27.53;;;3.00;99.90;;;;;;5055161;28;20206;-81
2021/01/04 09:57:50;;;;;;;52.77;27.73;;;3.10;99.90;;;;;;5074252;28;20279;-82
2021/01/04 10:00:21;;;;;;;49.03;27.90;;;3.10;99.90;;;;;;5058272;28;20209;-82
2021/01/04 10:02:48;;;;;;;49.53;27.57;;;3.20;99.90;;;;;;5071721;28;20237;-81
2021/01/04 10:05:16;;;;;;;119.90;69.20;;;3.20;99.90;;;;;;5070092;28;20247;-79
2021/01/04 10:07:43;;;;;;;58.03;33.20;;;3.30;99.90;;;;;;5070726;28;20305;-79
2021/01/04 10:10:12;;;;;;;51.23;28.27;;;3.50;99.90;;;;;;5064217;28;20689;-79
2021/01/04 10:12:39;;;;;;;47.00;28.00;;;3.50;99.90;;;;;;5073444;28;20233;-81
2021/01/04 10:15:18;;;;;;;50.20;27.43;;;3.50;99.90;;;;;;5071277;28;20238;-81
2021/01/04 10:17:47;;;;;;;46.83;26.97;;;3.50;99.90;;;;;;5069902;28;20333;-81
2021/01/04 10:20:29;;;;;;;47.40;26.47;;;3.60;99.90;;;;;;5064962;28;20611;-81
2021/01/04 10:22:59;;;;;;;46.97;26.87;;;3.70;99.90;;;;;;5065086;28;20734;-81
2021/01/04 10:25:35;;;;;;;45.87;27.23;;;3.70;99.90;;;;;;5058677;28;20203;-81
2021/01/04 10:28:02;;;;;;;48.63;26.93;;;3.60;99.90;;;;;;5061130;28;20261;-79
2021/01/04 10:30:30;;;;;;;49.37;31.03;;;3.70;99.90;;;;;;5071776;28;20230;-80
2021/01/04 10:33:07;;;;;;;50.50;31.10;;;3.70;99.90;;;;;;5070639;28;20647;-80
2021/01/04 10:35:34;;;;;;;155.90;88.67;;;3.80;99.90;;;;;;5065127;28;20234;-80
2021/01/04 10:38:09;;;;;;;159.90;105.50;;;3.80;99.90;;;;;;5070258;28;20238;-80
2021/01/04 10:40:47;;;;;;;49.80;33.07;;;3.80;99.90;;;;;;5058093;28;20232;-80
2021/01/04 10:43:19;;;;;;;50.70;34.27;;;3.70;99.90;;;;;;5073613;28;20285;-80
2021/01/04 10:45:46;;;;;;;47.10;31.70;;;3.70;99.90;;;;;;5069562;28;20235;-80
2021/01/04 10:48:16;;;;;;;46.27;29.60;;;3.70;99.90;;;;;;5068143;28;20209;-79
2021/01/04 10:50:45;;;;;;;45.07;26.77;;;3.80;99.90;;;;;;5066728;28;20250;-80
2021/01/04 10:53:14;;;;;;;42.10;26.53;;;3.80;99.90;;;;;;5069916;28;20261;-80
2021/01/04 10:55:52;;;;;;;43.70;27.53;;;4.00;99.90;;;;;;5065052;28;20242;-80
2021/01/04 10:58:24;;;;;;;43.23;25.97;;;4.10;99.90;;;;;;5064336;28;20688;-78
2021/01/04 11:01:00;;;;;;;45.77;27.73;;;4.20;99.90;;;;;;5064583;28;20207;-80
2021/01/04 11:03:26;;;;;;;46.23;28.60;;;4.30;99.90;;;;;;5057206;28;20636;-80
2021/01/04 11:05:53;;;;;;;41.13;26.47;;;4.40;99.90;;;;;;5068664;28;20690;-80
2021/01/04 11:08:30;;;;;;;43.93;27.50;;;4.50;99.90;;;;;;5072352;28;20241;-80
2021/01/04 11:11:00;;;;;;;42.40;27.07;;;4.50;99.90;;;;;;5072256;28;20247;-80
2021/01/04 11:13:32;;;;;;;39.70;26.27;;;4.40;99.90;;;;;;5059869;28;20237;-80
2021/01/04 11:16:13;;;;;;;39.50;25.70;;;4.30;99.90;;;;;;5071169;28;20239;-81
2021/01/04 11:18:51;;;;;;;42.37;29.10;;;4.40;99.90;;;;;;5043818;28;20238;-80
2021/01/04 11:21:20;;;;;;;42.70;26.03;;;4.40;99.90;;;;;;5072421;28;20230;-80
2021/01/04 11:23:47;;;;;;;41.87;25.30;;;4.40;99.90;;;;;;5072258;28;20249;-80
2021/01/04 11:26:13;;;;;;;40.40;26.47;;;4.40;99.90;;;;;;5061105;28;20266;-80
2021/01/04 11:28:40;;;;;;;39.63;25.30;;;4.50;99.90;;;;;;5071819;28;20245;-80
2021/01/04 11:31:06;;;;;;;38.80;24.57;;;4.50;99.90;;;;;;5071360;28;20203;-80
2021/01/04 11:33:33;;;;;;;42.40;24.47;;;4.50;99.90;;;;;;5072102;28;20208;-80
2021/01/04 11:36:00;;;;;;;38.60;24.03;;;4.40;99.90;;;;;;5071945;28;20689;-78
2021/01/04 11:38:27;;;;;;;48.80;28.57;;;4.30;99.90;;;;;;5066945;28;20227;-81
2021/01/04 11:40:55;;;;;;;65.83;38.87;;;4.30;99.90;;;;;;5071538;28;20226;-81
2021/01/04 11:43:21;;;;;;;57.33;34.40;;;4.40;99.90;;;;;;5059989;28;20204;-81
2021/01/04 11:45:48;;;;;;;42.67;26.47;;;4.50;99.90;;;;;;5061506;28;20633;-79
2021/01/04 11:48:14;;;;;;;40.40;27.13;;;4.40;99.90;;;;;;5053377;28;20247;-77
2021/01/04 11:50:41;;;;;;;49.47;31.47;;;4.40;99.90;;;;;;5064372;28;20239;-79
2021/01/04 11:53:08;;;;;;;58.37;38.30;;;4.50;99.90;;;;;;5072030;28;20641;-78
2021/01/04 11:55:34;;;;;;;49.57;32.23;;;4.60;99.90;;;;;;5069487;28;20238;-77
2021/01/04 11:58:01;;;;;;;44.83;30.40;;;4.70;99.90;;;;;;5072105;28;20223;-78
2021/01/04 12:00:28;;;;;;;40.23;27.03;;;4.50;99.90;;;;;;5071666;28;20203;-78
2021/01/04 12:02:55;;;;;;;39.93;25.53;;;4.70;99.90;;;;;;5072191;28;20249;-78
2021/01/04 12:05:21;;;;;;;41.60;28.97;;;4.70;99.90;;;;;;5060787;28;20663;-78
2021/01/04 12:07:48;;;;;;;70.73;46.17;;;4.70;99.90;;;;;;5071581;28;20302;-78
2021/01/04 12:10:16;;;;;;;50.40;34.23;;;4.60;99.90;;;;;;5071482;28;20237;-80
2021/01/04 12:12:43;;;;;;;39.23;27.50;;;4.50;99.90;;;;;;5057502;28;20320;-78
2021/01/04 12:15:10;;;;;;;33.17;22.40;;;4.40;99.90;;;;;;5069995;28;20662;-79
2021/01/04 12:17:37;;;;;;;35.60;25.97;;;4.30;99.90;;;;;;5070128;28;20233;-80
2021/01/04 12:20:05;;;;;;;35.27;24.60;;;4.10;99.90;;;;;;5064796;28;20692;-77
2021/01/04 12:22:31;;;;;;;32.63;20.80;;;4.10;99.90;;;;;;5071190;28;20269;-79
2021/01/04 12:24:59;;;;;;;28.73;19.77;;;4.10;99.90;;;;;;5071129;28;20237;-79
2021/01/04 12:27:25;;;;;;;33.90;22.37;;;4.10;99.90;;;;;;5065476;28;20279;-79
2021/01/04 12:29:52;;;;;;;46.57;35.37;;;4.00;99.90;;;;;;5071122;28;20234;-81
2021/01/04 12:32:19;;;;;;;56.00;41.23;;;4.00;99.90;;;;;;5067228;28;20226;-81
2021/01/04 12:34:46;;;;;;;31.97;20.80;;;4.00;99.90;;;;;;5071678;28;20237;-80
2021/01/04 12:37:13;;;;;;;62.33;42.13;;;4.10;99.90;;;;;;5066246;28;20206;-80
2021/01/04 12:39:39;;;;;;;37.47;25.07;;;4.10;99.90;;;;;;5060286;28;20241;-81
2021/01/04 12:42:07;;;;;;;31.23;20.87;;;4.10;99.90;;;;;;5074143;28;20234;-80
2021/01/04 12:44:33;;;;;;;35.23;25.07;;;4.00;99.90;;;;;;5059797;28;20207;-80
2021/01/04 12:47:00;;;;;;;33.27;21.80;;;4.00;99.90;;;;;;5073499;28;20671;-81
2021/01/04 12:49:29;;;;;;;37.83;26.17;;;3.90;99.90;;;;;;5075791;28;20221;-80
2021/01/04 12:51:57;;;;;;;35.07;24.07;;;3.90;99.90;;;;;;5074467;28;20221;-81
2021/01/04 12:54:26;;;;;;;30.67;19.73;;;4.00;99.90;;;;;;5074430;28;20226;-80
2021/01/04 12:56:55;;;;;;;34.00;22.23;;;3.90;99.90;;;;;;5064058;28;20271;-81
2021/01/04 12:59:24;;;;;;;33.00;20.27;;;3.90;99.90;;;;;;5075117;28;20232;-80
2021/01/04 13:01:52;;;;;;;32.67;21.37;;;3.90;99.90;;;;;;5070328;28;20199;-78
2021/01/04 13:04:19;;;;;;;34.53;23.10;;;3.90;99.90;;;;;;5058434;28;20210;-77
2021/01/04 13:06:47;;;;;;;31.03;20.67;;;3.90;99.90;;;;;;5061907;28;20256;-78
2021/01/04 13:09:14;;;;;;;32.90;20.90;;;3.90;99.90;;;;;;5072104;28;20238;-78
2021/01/04 13:14:23;;;;;;;29.33;20.73;;;3.90;99.90;;;;;;4348594;22;10000587;-77
2021/01/04 13:16:50;;;;;;;32.50;20.53;;;3.90;99.90;;;;;;5034559;28;20473;-77
2021/01/04 13:19:18;;;;;;;37.37;28.40;;;3.90;99.90;;;;;;5034195;28;20235;-77
2021/01/04 13:21:45;;;;;;;22.33;15.23;;;4.10;99.90;;;;;;5041101;28;20261;-77